Davisport, Kentucky
Current Conditions -  °F | °C
As of 3:55 PM on Tuesday 21 Oct 2014 (Local Time) from KSJS Reporting Station
Overcast Overcast  
Wind Chill: 53°   Ceiling: 3900
Heat Index: 53°   Visibility: 10mi
Dew Point: 40°   Wind: 8mph
Humidity: 63%   Direction: 320°NW
Pressure: 30.02"   Gusts: NA
Location:  37.8776°N, 82.5976°W
Report Text: KSJS 211955Z AUTO 32007KT 280V360 10SM OVC039 12/05 A3002 RMK AO2 T01160047
Loading
Personal Weather Stations






























Interactive Weather Map
Tropical Storm Tracking
New forecast layout! Learn more

10-Day Weather Forecast

Advertisements
Track Severe Weather on mobile